sensor_id;sensor_type;location;lat;lon;timestamp;temperature;humidity
25937;DHT22;13733;51.178;4.450;2023-07-28T00:00:03;18.90;99.90
25937;DHT22;13733;51.178;4.450;2023-07-28T00:02:36;19.00;99.90
25937;DHT22;13733;51.178;4.450;2023-07-28T00:05:01;19.00;99.90
25937;DHT22;13733;51.178;4.450;2023-07-28T00:07:27;19.00;99.90
25937;DHT22;13733;51.178;4.450;2023-07-28T00:09:53;18.90;99.90
25937;DHT22;13733;51.178;4.450;2023-07-28T00:12:22;19.00;99.90
25937;DHT22;13733;51.178;4.450;2023-07-28T00:14:47;18.90;99.90
25937;DHT22;13733;51.178;4.450;2023-07-28T00:17:13;18.80;99.90
25937;DHT22;13733;51.178;4.450;2023-07-28T00:19:39;18.90;99.90
25937;DHT22;13733;51.178;4.450;2023-07-28T00:22:05;18.90;99.90
25937;DHT22;13733;51.178;4.450;2023-07-28T00:24:31;18.90;99.90
25937;DHT22;13733;51.178;4.450;2023-07-28T00:26:57;18.90;99.90
25937;DHT22;13733;51.178;4.450;2023-07-28T00:29:23;18.80;99.90
25937;DHT22;13733;51.178;4.450;2023-07-28T00:31:49;18.70;99.90
25937;DHT22;13733;51.178;4.450;2023-07-28T00:34:14;18.90;99.90
25937;DHT22;13733;51.178;4.450;2023-07-28T00:36:40;18.90;99.90
25937;DHT22;13733;51.178;4.450;2023-07-28T00:39:07;18.90;99.90
25937;DHT22;13733;51.178;4.450;2023-07-28T00:41:32;18.90;99.90
25937;DHT22;13733;51.178;4.450;2023-07-28T00:43:58;18.80;99.90
25937;DHT22;13733;51.178;4.450;2023-07-28T00:46:24;18.90;99.90
25937;DHT22;13733;51.178;4.450;2023-07-28T00:48:50;19.00;99.90
25937;DHT22;13733;51.178;4.450;2023-07-28T00:51:17;19.00;99.90
25937;DHT22;13733;51.178;4.450;2023-07-28T00:53:43;19.00;99.90
25937;DHT22;13733;51.178;4.450;2023-07-28T00:56:11;19.00;99.90
25937;DHT22;13733;51.178;4.450;2023-07-28T00:58:37;19.00;99.90
25937;DHT22;13733;51.178;4.450;2023-07-28T01:01:03;19.00;99.90
25937;DHT22;13733;51.178;4.450;2023-07-28T01:03:29;19.00;99.90
25937;DHT22;13733;51.178;4.450;2023-07-28T01:11:15;18.80;99.90
25937;DHT22;13733;51.178;4.450;2023-07-28T01:13:42;19.00;99.90
25937;DHT22;13733;51.178;4.450;2023-07-28T01:16:08;19.00;99.90
25937;DHT22;13733;51.178;4.450;2023-07-28T01:18:34;19.00;99.90
25937;DHT22;13733;51.178;4.450;2023-07-28T01:21:03;18.90;99.90
25937;DHT22;13733;51.178;4.450;2023-07-28T01:26:35;19.00;99.90
25937;DHT22;13733;51.178;4.450;2023-07-28T01:29:03;18.90;99.90
25937;DHT22;13733;51.178;4.450;2023-07-28T01:31:29;18.90;99.90
25937;DHT22;13733;51.178;4.450;2023-07-28T01:33:55;18.90;99.90
25937;DHT22;13733;51.178;4.450;2023-07-28T01:36:21;18.90;99.90
25937;DHT22;13733;51.178;4.450;2023-07-28T01:38:46;19.00;99.90
25937;DHT22;13733;51.178;4.450;2023-07-28T01:41:12;19.10;99.90
25937;DHT22;13733;51.178;4.450;2023-07-28T01:43:38;19.10;99.90
25937;DHT22;13733;51.178;4.450;2023-07-28T01:46:04;19.00;99.90
25937;DHT22;13733;51.178;4.450;2023-07-28T01:48:30;19.00;99.90
25937;DHT22;13733;51.178;4.450;2023-07-28T01:50:56;19.00;99.90
25937;DHT22;13733;51.178;4.450;2023-07-28T01:53:22;19.00;99.90
25937;DHT22;13733;51.178;4.450;2023-07-28T01:55:48;19.00;99.90
25937;DHT22;13733;51.178;4.450;2023-07-28T01:58:14;19.00;99.90
25937;DHT22;13733;51.178;4.450;2023-07-28T02:00:40;19.00;99.90
25937;DHT22;13733;51.178;4.450;2023-07-28T02:03:06;19.00;99.90
25937;DHT22;13733;51.178;4.450;2023-07-28T02:05:32;19.10;99.90
25937;DHT22;13733;51.178;4.450;2023-07-28T02:07:58;19.10;99.90
25937;DHT22;13733;51.178;4.450;2023-07-28T02:10:26;19.10;99.90
25937;DHT22;13733;51.178;4.450;2023-07-28T02:12:52;19.20;99.90
25937;DHT22;13733;51.178;4.450;2023-07-28T02:15:19;19.10;99.90
25937;DHT22;13733;51.178;4.450;2023-07-28T02:17:44;19.00;99.90
25937;DHT22;13733;51.178;4.450;2023-07-28T02:20:10;19.00;99.90
25937;DHT22;13733;51.178;4.450;2023-07-28T02:22:42;19.00;99.90
25937;DHT22;13733;51.178;4.450;2023-07-28T02:25:09;19.00;99.90
25937;DHT22;13733;51.178;4.450;2023-07-28T02:27:34;19.00;99.90
25937;DHT22;13733;51.178;4.450;2023-07-28T02:30:00;19.10;99.90
25937;DHT22;13733;51.178;4.450;2023-07-28T02:32:28;19.10;99.90
25937;DHT22;13733;51.178;4.450;2023-07-28T02:34:55;19.00;99.90
25937;DHT22;13733;51.178;4.450;2023-07-28T02:37:20;19.00;99.90
25937;DHT22;13733;51.178;4.450;2023-07-28T02:39:46;19.10;99.90
25937;DHT22;13733;51.178;4.450;2023-07-28T02:42:13;19.10;99.90
25937;DHT22;13733;51.178;4.450;2023-07-28T02:44:39;19.00;99.90
25937;DHT22;13733;51.178;4.450;2023-07-28T02:47:05;19.00;99.90
25937;DHT22;13733;51.178;4.450;2023-07-28T02:49:31;19.10;99.90
25937;DHT22;13733;51.178;4.450;2023-07-28T02:51:59;19.10;99.90
25937;DHT22;13733;51.178;4.450;2023-07-28T02:54:26;19.10;99.90
25937;DHT22;13733;51.178;4.450;2023-07-28T02:56:52;19.20;99.90
25937;DHT22;13733;51.178;4.450;2023-07-28T02:59:20;19.20;99.90
25937;DHT22;13733;51.178;4.450;2023-07-28T03:01:46;19.20;99.90
25937;DHT22;13733;51.178;4.450;2023-07-28T03:04:12;19.30;99.90
25937;DHT22;13733;51.178;4.450;2023-07-28T03:07:06;19.30;99.90
25937;DHT22;13733;51.178;4.450;2023-07-28T03:09:35;19.30;99.90
25937;DHT22;13733;51.178;4.450;2023-07-28T03:12:01;19.20;99.90
25937;DHT22;13733;51.178;4.450;2023-07-28T03:14:28;19.10;99.90
25937;DHT22;13733;51.178;4.450;2023-07-28T03:16:55;19.20;99.90
25937;DHT22;13733;51.178;4.450;2023-07-28T03:19:20;19.30;99.90
25937;DHT22;13733;51.178;4.450;2023-07-28T03:21:47;19.20;99.90
25937;DHT22;13733;51.178;4.450;2023-07-28T03:24:12;19.20;99.90
25937;DHT22;13733;51.178;4.450;2023-07-28T03:26:38;19.20;99.90
25937;DHT22;13733;51.178;4.450;2023-07-28T03:29:04;19.10;99.90
25937;DHT22;13733;51.178;4.450;2023-07-28T03:31:30;19.20;99.90
25937;DHT22;13733;51.178;4.450;2023-07-28T03:33:56;19.20;99.90
25937;DHT22;13733;51.178;4.450;2023-07-28T03:36:25;19.40;99.90
25937;DHT22;13733;51.178;4.450;2023-07-28T03:38:54;19.30;99.90
25937;DHT22;13733;51.178;4.450;2023-07-28T03:41:20;19.20;99.90
25937;DHT22;13733;51.178;4.450;2023-07-28T03:43:46;19.30;99.90
25937;DHT22;13733;51.178;4.450;2023-07-28T03:46:12;19.30;99.90
25937;DHT22;13733;51.178;4.450;2023-07-28T03:48:37;19.30;99.90
25937;DHT22;13733;51.178;4.450;2023-07-28T03:51:03;19.30;99.90
25937;DHT22;13733;51.178;4.450;2023-07-28T03:53:29;19.40;99.90
25937;DHT22;13733;51.178;4.450;2023-07-28T03:55:55;19.50;99.90
25937;DHT22;13733;51.178;4.450;2023-07-28T03:58:26;19.30;99.90
25937;DHT22;13733;51.178;4.450;2023-07-28T04:00:52;19.30;99.90
25937;DHT22;13733;51.178;4.450;2023-07-28T04:03:21;19.30;99.90
25937;DHT22;13733;51.178;4.450;2023-07-28T04:05:47;19.20;99.90
25937;DHT22;13733;51.178;4.450;2023-07-28T04:08:13;19.20;99.90
25937;DHT22;13733;51.178;4.450;2023-07-28T04:10:39;19.10;99.90
25937;DHT22;13733;51.178;4.450;2023-07-28T04:13:04;19.20;99.90
25937;DHT22;13733;51.178;4.450;2023-07-28T04:15:30;19.10;99.90
25937;DHT22;13733;51.178;4.450;2023-07-28T04:17:56;19.20;99.90
25937;DHT22;13733;51.178;4.450;2023-07-28T04:20:22;19.30;99.90
25937;DHT22;13733;51.178;4.450;2023-07-28T04:22:47;19.40;99.90
25937;DHT22;13733;51.178;4.450;2023-07-28T04:25:13;19.50;99.90
25937;DHT22;13733;51.178;4.450;2023-07-28T04:27:44;19.30;99.90
25937;DHT22;13733;51.178;4.450;2023-07-28T04:30:10;19.30;99.90
25937;DHT22;13733;51.178;4.450;2023-07-28T04:32:36;19.40;99.90
25937;DHT22;13733;51.178;4.450;2023-07-28T04:35:09;19.40;99.90
25937;DHT22;13733;51.178;4.450;2023-07-28T04:38:01;19.40;99.90
25937;DHT22;13733;51.178;4.450;2023-07-28T04:40:46;19.40;99.90
25937;DHT22;13733;51.178;4.450;2023-07-28T04:43:14;19.40;99.90
25937;DHT22;13733;51.178;4.450;2023-07-28T04:45:46;19.50;99.90
25937;DHT22;13733;51.178;4.450;2023-07-28T04:48:16;19.40;99.90
25937;DHT22;13733;51.178;4.450;2023-07-28T04:50:42;19.50;99.90
25937;DHT22;13733;51.178;4.450;2023-07-28T04:53:28;19.40;99.90
25937;DHT22;13733;51.178;4.450;2023-07-28T04:56:16;19.50;99.90
25937;DHT22;13733;51.178;4.450;2023-07-28T04:58:42;19.50;99.90
25937;DHT22;13733;51.178;4.450;2023-07-28T05:01:08;19.40;99.90
25937;DHT22;13733;51.178;4.450;2023-07-28T05:03:35;19.30;99.90
25937;DHT22;13733;51.178;4.450;2023-07-28T05:06:15;19.40;99.90
25937;DHT22;13733;51.178;4.450;2023-07-28T05:08:41;19.40;99.90
25937;DHT22;13733;51.178;4.450;2023-07-28T05:11:06;19.50;99.90
25937;DHT22;13733;51.178;4.450;2023-07-28T05:13:32;19.50;99.90
25937;DHT22;13733;51.178;4.450;2023-07-28T05:15:58;19.40;99.90
25937;DHT22;13733;51.178;4.450;2023-07-28T05:18:48;19.50;99.90
25937;DHT22;13733;51.178;4.450;2023-07-28T05:21:33;19.50;99.90
25937;DHT22;13733;51.178;4.450;2023-07-28T05:23:58;19.70;99.90
25937;DHT22;13733;51.178;4.450;2023-07-28T05:26:24;19.70;99.90
25937;DHT22;13733;51.178;4.450;2023-07-28T05:28:50;19.50;99.90
25937;DHT22;13733;51.178;4.450;2023-07-28T05:31:16;19.60;99.90
25937;DHT22;13733;51.178;4.450;2023-07-28T05:33:43;19.60;99.90
25937;DHT22;13733;51.178;4.450;2023-07-28T05:36:09;19.70;99.90
25937;DHT22;13733;51.178;4.450;2023-07-28T05:38:35;19.80;99.90
25937;DHT22;13733;51.178;4.450;2023-07-28T05:41:03;19.90;99.90
25937;DHT22;13733;51.178;4.450;2023-07-28T05:43:30;19.80;99.90
25937;DHT22;13733;51.178;4.450;2023-07-28T05:45:58;19.80;99.90
25937;DHT22;13733;51.178;4.450;2023-07-28T05:48:25;19.80;99.90
25937;DHT22;13733;51.178;4.450;2023-07-28T05:50:51;19.70;99.90
25937;DHT22;13733;51.178;4.450;2023-07-28T05:53:22;19.70;99.90
25937;DHT22;13733;51.178;4.450;2023-07-28T05:55:51;19.70;99.90
25937;DHT22;13733;51.178;4.450;2023-07-28T05:58:20;19.60;99.90
25937;DHT22;13733;51.178;4.450;2023-07-28T06:00:46;19.70;99.90
25937;DHT22;13733;51.178;4.450;2023-07-28T06:03:33;19.60;99.90
25937;DHT22;13733;51.178;4.450;2023-07-28T06:06:09;19.70;99.90
25937;DHT22;13733;51.178;4.450;2023-07-28T06:08:36;19.70;99.90
25937;DHT22;13733;51.178;4.450;2023-07-28T06:11:05;19.80;99.90
25937;DHT22;13733;51.178;4.450;2023-07-28T06:13:32;20.10;99.90
25937;DHT22;13733;51.178;4.450;2023-07-28T06:15:58;20.10;99.90
25937;DHT22;13733;51.178;4.450;2023-07-28T06:18:25;20.20;99.90
25937;DHT22;13733;51.178;4.450;2023-07-28T06:21:00;20.30;99.90
25937;DHT22;13733;51.178;4.450;2023-07-28T06:23:26;20.30;99.90
25937;DHT22;13733;51.178;4.450;2023-07-28T06:25:55;20.30;99.90
25937;DHT22;13733;51.178;4.450;2023-07-28T06:28:21;20.30;99.90
25937;DHT22;13733;51.178;4.450;2023-07-28T06:30:58;20.30;99.90
25937;DHT22;13733;51.178;4.450;2023-07-28T06:33:28;20.30;99.90
25937;DHT22;13733;51.178;4.450;2023-07-28T06:35:54;20.20;99.90
25937;DHT22;13733;51.178;4.450;2023-07-28T06:38:20;20.20;99.90
25937;DHT22;13733;51.178;4.450;2023-07-28T06:40:46;20.50;99.90
25937;DHT22;13733;51.178;4.450;2023-07-28T06:43:12;20.50;99.90
25937;DHT22;13733;51.178;4.450;2023-07-28T06:45:38;20.60;99.90
25937;DHT22;13733;51.178;4.450;2023-07-28T06:48:04;20.70;99.90
25937;DHT22;13733;51.178;4.450;2023-07-28T06:50:30;20.70;99.90
25937;DHT22;13733;51.178;4.450;2023-07-28T06:52:55;20.80;99.90
25937;DHT22;13733;51.178;4.450;2023-07-28T06:55:24;20.50;99.90
25937;DHT22;13733;51.178;4.450;2023-07-28T06:57:51;20.40;99.90
25937;DHT22;13733;51.178;4.450;2023-07-28T07:00:19;20.20;99.90
25937;DHT22;13733;51.178;4.450;2023-07-28T07:02:45;20.40;99.90
25937;DHT22;13733;51.178;4.450;2023-07-28T07:05:10;20.60;99.90
25937;DHT22;13733;51.178;4.450;2023-07-28T07:07:38;20.80;99.90
25937;DHT22;13733;51.178;4.450;2023-07-28T07:10:04;20.70;99.90
25937;DHT22;13733;51.178;4.450;2023-07-28T07:12:32;20.90;99.90
25937;DHT22;13733;51.178;4.450;2023-07-28T07:14:57;21.10;99.90
25937;DHT22;13733;51.178;4.450;2023-07-28T07:17:23;21.20;99.90
25937;DHT22;13733;51.178;4.450;2023-07-28T07:19:49;21.20;99.90
25937;DHT22;13733;51.178;4.450;2023-07-28T07:22:15;20.90;99.90
25937;DHT22;13733;51.178;4.450;2023-07-28T07:24:40;21.10;99.90
25937;DHT22;13733;51.178;4.450;2023-07-28T07:27:06;21.20;99.90
25937;DHT22;13733;51.178;4.450;2023-07-28T07:29:32;21.40;99.90
25937;DHT22;13733;51.178;4.450;2023-07-28T07:31:58;21.60;99.90
25937;DHT22;13733;51.178;4.450;2023-07-28T07:34:24;21.80;99.90
25937;DHT22;13733;51.178;4.450;2023-07-28T07:36:50;21.80;99.90
25937;DHT22;13733;51.178;4.450;2023-07-28T07:39:16;21.80;99.90
25937;DHT22;13733;51.178;4.450;2023-07-28T07:41:42;21.80;99.90
25937;DHT22;13733;51.178;4.450;2023-07-28T07:44:07;21.90;99.90
25937;DHT22;13733;51.178;4.450;2023-07-28T07:46:34;22.00;99.90
25937;DHT22;13733;51.178;4.450;2023-07-28T07:49:02;22.20;99.90
25937;DHT22;13733;51.178;4.450;2023-07-28T07:51:31;22.30;99.90
25937;DHT22;13733;51.178;4.450;2023-07-28T07:53:59;22.60;99.90
25937;DHT22;13733;51.178;4.450;2023-07-28T07:56:27;22.60;99.90
25937;DHT22;13733;51.178;4.450;2023-07-28T07:58:53;22.50;99.90
25937;DHT22;13733;51.178;4.450;2023-07-28T08:01:19;22.50;99.90
25937;DHT22;13733;51.178;4.450;2023-07-28T08:03:44;22.50;99.90
25937;DHT22;13733;51.178;4.450;2023-07-28T08:06:10;22.60;99.90
25937;DHT22;13733;51.178;4.450;2023-07-28T08:08:38;22.90;99.90
25937;DHT22;13733;51.178;4.450;2023-07-28T08:11:04;23.20;99.90
25937;DHT22;13733;51.178;4.450;2023-07-28T08:13:30;23.20;99.90
25937;DHT22;13733;51.178;4.450;2023-07-28T08:15:55;23.10;99.90
25937;DHT22;13733;51.178;4.450;2023-07-28T08:18:21;22.60;99.90
25937;DHT22;13733;51.178;4.450;2023-07-28T08:20:48;22.50;99.90
25937;DHT22;13733;51.178;4.450;2023-07-28T08:23:14;22.60;99.90
25937;DHT22;13733;51.178;4.450;2023-07-28T08:25:40;22.80;99.90
25937;DHT22;13733;51.178;4.450;2023-07-28T08:28:06;22.70;99.90
25937;DHT22;13733;51.178;4.450;2023-07-28T08:30:32;22.90;99.90
25937;DHT22;13733;51.178;4.450;2023-07-28T08:32:58;23.00;99.90
25937;DHT22;13733;51.178;4.450;2023-07-28T08:35:23;23.00;99.90
25937;DHT22;13733;51.178;4.450;2023-07-28T08:37:49;23.30;99.90
25937;DHT22;13733;51.178;4.450;2023-07-28T08:40:16;23.30;99.90
25937;DHT22;13733;51.178;4.450;2023-07-28T08:42:42;23.50;99.90
25937;DHT22;13733;51.178;4.450;2023-07-28T08:45:08;23.50;99.90
25937;DHT22;13733;51.178;4.450;2023-07-28T08:47:35;23.20;99.90
25937;DHT22;13733;51.178;4.450;2023-07-28T08:50:01;23.20;99.90
25937;DHT22;13733;51.178;4.450;2023-07-28T08:52:27;23.00;99.90
25937;DHT22;13733;51.178;4.450;2023-07-28T08:54:53;23.20;99.90
25937;DHT22;13733;51.178;4.450;2023-07-28T08:57:19;23.40;99.90
25937;DHT22;13733;51.178;4.450;2023-07-28T08:59:46;23.50;99.90
25937;DHT22;13733;51.178;4.450;2023-07-28T09:02:16;23.40;99.90
25937;DHT22;13733;51.178;4.450;2023-07-28T09:04:43;23.40;99.90
25937;DHT22;13733;51.178;4.450;2023-07-28T09:07:09;23.40;99.90
25937;DHT22;13733;51.178;4.450;2023-07-28T09:09:35;23.20;99.90
25937;DHT22;13733;51.178;4.450;2023-07-28T09:12:02;23.40;99.90
25937;DHT22;13733;51.178;4.450;2023-07-28T09:14:29;23.30;99.90
25937;DHT22;13733;51.178;4.450;2023-07-28T09:16:59;23.30;99.90
25937;DHT22;13733;51.178;4.450;2023-07-28T09:19:30;23.40;99.90
25937;DHT22;13733;51.178;4.450;2023-07-28T09:22:00;23.50;99.90
25937;DHT22;13733;51.178;4.450;2023-07-28T09:24:32;23.80;99.90
25937;DHT22;13733;51.178;4.450;2023-07-28T09:27:00;24.10;99.90
25937;DHT22;13733;51.178;4.450;2023-07-28T09:29:26;24.30;99.90
25937;DHT22;13733;51.178;4.450;2023-07-28T09:32:04;24.50;99.90
25937;DHT22;13733;51.178;4.450;2023-07-28T09:39:40;24.90;99.90
25937;DHT22;13733;51.178;4.450;2023-07-28T09:42:07;25.00;99.90
25937;DHT22;13733;51.178;4.450;2023-07-28T09:44:34;25.20;99.90
25937;DHT22;13733;51.178;4.450;2023-07-28T09:47:01;25.20;99.90
25937;DHT22;13733;51.178;4.450;2023-07-28T09:49:29;25.50;99.90
25937;DHT22;13733;51.178;4.450;2023-07-28T09:52:02;25.30;99.90
25937;DHT22;13733;51.178;4.450;2023-07-28T09:54:30;25.20;99.90
25937;DHT22;13733;51.178;4.450;2023-07-28T09:56:58;25.30;99.90
25937;DHT22;13733;51.178;4.450;2023-07-28T09:59:29;25.20;99.90
25937;DHT22;13733;51.178;4.450;2023-07-28T10:01:58;25.40;99.90
25937;DHT22;13733;51.178;4.450;2023-07-28T10:04:24;25.90;99.90
25937;DHT22;13733;51.178;4.450;2023-07-28T10:06:52;26.00;99.90
25937;DHT22;13733;51.178;4.450;2023-07-28T10:09:26;26.20;99.90
25937;DHT22;13733;51.178;4.450;2023-07-28T10:11:53;26.00;99.90
25937;DHT22;13733;51.178;4.450;2023-07-28T10:14:29;26.00;99.90
25937;DHT22;13733;51.178;4.450;2023-07-28T10:16:59;25.80;99.90
25937;DHT22;13733;51.178;4.450;2023-07-28T10:19:28;25.90;99.90
25937;DHT22;13733;51.178;4.450;2023-07-28T10:22:09;25.50;99.90
25937;DHT22;13733;51.178;4.450;2023-07-28T10:24:55;25.50;99.90
25937;DHT22;13733;51.178;4.450;2023-07-28T10:27:45;25.30;99.90
25937;DHT22;13733;51.178;4.450;2023-07-28T10:30:13;24.60;99.90
25937;DHT22;13733;51.178;4.450;2023-07-28T10:32:41;24.60;99.90
25937;DHT22;13733;51.178;4.450;2023-07-28T10:37:39;24.50;99.90
25937;DHT22;13733;51.178;4.450;2023-07-28T10:40:33;24.20;99.90
25937;DHT22;13733;51.178;4.450;2023-07-28T10:43:03;24.10;99.90
25937;DHT22;13733;51.178;4.450;2023-07-28T10:45:32;24.10;99.90
25937;DHT22;13733;51.178;4.450;2023-07-28T10:47:59;24.00;99.90
25937;DHT22;13733;51.178;4.450;2023-07-28T10:50:30;23.80;99.90
25937;DHT22;13733;51.178;4.450;2023-07-28T10:52:56;23.40;99.90
25937;DHT22;13733;51.178;4.450;2023-07-28T10:55:24;23.30;99.90
25937;DHT22;13733;51.178;4.450;2023-07-28T10:57:51;23.20;99.90
25937;DHT22;13733;51.178;4.450;2023-07-28T11:00:19;23.10;99.90
25937;DHT22;13733;51.178;4.450;2023-07-28T11:02:48;23.10;99.90
25937;DHT22;13733;51.178;4.450;2023-07-28T11:05:20;23.20;99.90
25937;DHT22;13733;51.178;4.450;2023-07-28T11:07:54;23.40;99.90
25937;DHT22;13733;51.178;4.450;2023-07-28T11:10:21;23.60;99.90
25937;DHT22;13733;51.178;4.450;2023-07-28T11:12:48;24.00;99.90
25937;DHT22;13733;51.178;4.450;2023-07-28T11:15:15;24.30;99.90
25937;DHT22;13733;51.178;4.450;2023-07-28T11:17:49;24.50;99.90
25937;DHT22;13733;51.178;4.450;2023-07-28T11:20:20;24.50;99.90
25937;DHT22;13733;51.178;4.450;2023-07-28T11:22:47;24.90;99.90
25937;DHT22;13733;51.178;4.450;2023-07-28T11:25:17;25.70;99.90
25937;DHT22;13733;51.178;4.450;2023-07-28T11:27:44;26.70;99.90
25937;DHT22;13733;51.178;4.450;2023-07-28T11:30:15;26.50;99.90
25937;DHT22;13733;51.178;4.450;2023-07-28T11:32:43;26.10;99.90
25937;DHT22;13733;51.178;4.450;2023-07-28T11:35:12;25.70;99.90
25937;DHT22;13733;51.178;4.450;2023-07-28T11:37:40;25.10;99.90
25937;DHT22;13733;51.178;4.450;2023-07-28T11:40:08;24.70;99.90
25937;DHT22;13733;51.178;4.450;2023-07-28T11:42:47;24.30;99.90
25937;DHT22;13733;51.178;4.450;2023-07-28T11:45:15;24.50;99.90
25937;DHT22;13733;51.178;4.450;2023-07-28T11:47:55;24.70;99.90
25937;DHT22;13733;51.178;4.450;2023-07-28T11:50:25;24.80;99.90
25937;DHT22;13733;51.178;4.450;2023-07-28T11:52:51;24.80;99.90
25937;DHT22;13733;51.178;4.450;2023-07-28T11:55:18;24.90;99.90
25937;DHT22;13733;51.178;4.450;2023-07-28T11:57:44;24.90;99.90
25937;DHT22;13733;51.178;4.450;2023-07-28T12:00:10;25.40;99.90
25937;DHT22;13733;51.178;4.450;2023-07-28T12:02:38;26.30;99.90
25937;DHT22;13733;51.178;4.450;2023-07-28T12:05:12;26.50;99.90
25937;DHT22;13733;51.178;4.450;2023-07-28T12:07:38;26.50;99.90
25937;DHT22;13733;51.178;4.450;2023-07-28T12:10:05;26.50;99.90
25937;DHT22;13733;51.178;4.450;2023-07-28T12:12:47;26.30;99.90
25937;DHT22;13733;51.178;4.450;2023-07-28T12:15:21;26.10;99.90
25937;DHT22;13733;51.178;4.450;2023-07-28T12:18:07;26.10;99.90
25937;DHT22;13733;51.178;4.450;2023-07-28T12:20:50;26.10;99.90
25937;DHT22;13733;51.178;4.450;2023-07-28T12:23:20;26.40;99.90
25937;DHT22;13733;51.178;4.450;2023-07-28T12:25:47;27.40;99.90
25937;DHT22;13733;51.178;4.450;2023-07-28T12:28:13;28.40;99.90
25937;DHT22;13733;51.178;4.450;2023-07-28T12:30:38;28.60;99.90
25937;DHT22;13733;51.178;4.450;2023-07-28T12:33:05;28.40;99.90
25937;DHT22;13733;51.178;4.450;2023-07-28T12:35:32;27.80;99.90
25937;DHT22;13733;51.178;4.450;2023-07-28T12:38:00;27.40;99.90
25937;DHT22;13733;51.178;4.450;2023-07-28T12:40:29;26.90;99.90
25937;DHT22;13733;51.178;4.450;2023-07-28T12:42:56;26.10;99.90
25937;DHT22;13733;51.178;4.450;2023-07-28T12:45:22;25.90;99.90
25937;DHT22;13733;51.178;4.450;2023-07-28T12:47:48;25.90;99.90
25937;DHT22;13733;51.178;4.450;2023-07-28T12:50:13;25.70;99.90
25937;DHT22;13733;51.178;4.450;2023-07-28T12:52:39;25.80;99.90
25937;DHT22;13733;51.178;4.450;2023-07-28T12:55:05;25.80;99.90
25937;DHT22;13733;51.178;4.450;2023-07-28T12:57:32;25.90;99.90
25937;DHT22;13733;51.178;4.450;2023-07-28T12:59:58;25.90;99.90
25937;DHT22;13733;51.178;4.450;2023-07-28T13:02:24;25.40;99.90
25937;DHT22;13733;51.178;4.450;2023-07-28T13:04:49;25.30;99.90
25937;DHT22;13733;51.178;4.450;2023-07-28T13:07:15;25.10;99.90
25937;DHT22;13733;51.178;4.450;2023-07-28T13:09:41;24.90;99.90
25937;DHT22;13733;51.178;4.450;2023-07-28T13:12:09;24.80;99.90
25937;DHT22;13733;51.178;4.450;2023-07-28T13:14:35;24.90;99.90
25937;DHT22;13733;51.178;4.450;2023-07-28T13:17:01;25.00;99.90
25937;DHT22;13733;51.178;4.450;2023-07-28T13:19:27;25.20;99.90
25937;DHT22;13733;51.178;4.450;2023-07-28T13:21:52;25.30;99.90
25937;DHT22;13733;51.178;4.450;2023-07-28T13:24:18;25.10;99.90
25937;DHT22;13733;51.178;4.450;2023-07-28T13:26:44;25.00;99.90
25937;DHT22;13733;51.178;4.450;2023-07-28T13:29:10;25.10;99.90
25937;DHT22;13733;51.178;4.450;2023-07-28T13:31:35;24.90;99.90
25937;DHT22;13733;51.178;4.450;2023-07-28T13:34:01;24.90;99.90
25937;DHT22;13733;51.178;4.450;2023-07-28T13:36:28;25.30;99.90
25937;DHT22;13733;51.178;4.450;2023-07-28T13:38:53;25.70;99.90
25937;DHT22;13733;51.178;4.450;2023-07-28T13:41:19;26.10;99.90
25937;DHT22;13733;51.178;4.450;2023-07-28T13:43:45;26.40;99.90
25937;DHT22;13733;51.178;4.450;2023-07-28T13:46:11;26.70;99.90
25937;DHT22;13733;51.178;4.450;2023-07-28T13:48:37;26.90;99.90
25937;DHT22;13733;51.178;4.450;2023-07-28T13:51:05;27.30;99.90
25937;DHT22;13733;51.178;4.450;2023-07-28T13:53:30;27.70;99.90
25937;DHT22;13733;51.178;4.450;2023-07-28T13:55:56;28.50;99.90
25937;DHT22;13733;51.178;4.450;2023-07-28T13:58:22;29.20;99.90
25937;DHT22;13733;51.178;4.450;2023-07-28T14:00:48;29.60;97.10
25937;DHT22;13733;51.178;4.450;2023-07-28T14:03:14;30.00;97.80
25937;DHT22;13733;51.178;4.450;2023-07-28T14:05:41;30.50;94.60
25937;DHT22;13733;51.178;4.450;2023-07-28T14:08:06;30.40;94.10
25937;DHT22;13733;51.178;4.450;2023-07-28T14:10:32;29.70;94.70
25937;DHT22;13733;51.178;4.450;2023-07-28T14:12:58;29.20;96.70
25937;DHT22;13733;51.178;4.450;2023-07-28T14:15:24;29.10;98.30
25937;DHT22;13733;51.178;4.450;2023-07-28T14:17:50;29.10;97.20
25937;DHT22;13733;51.178;4.450;2023-07-28T14:20:16;28.40;99.00
25937;DHT22;13733;51.178;4.450;2023-07-28T14:22:42;27.60;99.90
25937;DHT22;13733;51.178;4.450;2023-07-28T14:25:08;27.10;99.90
25937;DHT22;13733;51.178;4.450;2023-07-28T14:27:34;26.80;99.90
25937;DHT22;13733;51.178;4.450;2023-07-28T14:30:00;26.20;99.90
25937;DHT22;13733;51.178;4.450;2023-07-28T14:32:26;26.10;99.90
25937;DHT22;13733;51.178;4.450;2023-07-28T14:34:52;25.70;99.90
25937;DHT22;13733;51.178;4.450;2023-07-28T14:37:18;25.40;99.90
25937;DHT22;13733;51.178;4.450;2023-07-28T14:39:44;25.50;99.90
25937;DHT22;13733;51.178;4.450;2023-07-28T14:42:10;25.60;99.90
25937;DHT22;13733;51.178;4.450;2023-07-28T14:44:36;25.80;99.90
25937;DHT22;13733;51.178;4.450;2023-07-28T14:47:02;26.30;99.90
25937;DHT22;13733;51.178;4.450;2023-07-28T14:49:27;27.00;99.90
25937;DHT22;13733;51.178;4.450;2023-07-28T14:51:56;28.50;99.90
25937;DHT22;13733;51.178;4.450;2023-07-28T14:54:22;30.20;95.60
25937;DHT22;13733;51.178;4.450;2023-07-28T14:56:48;31.00;92.40
25937;DHT22;13733;51.178;4.450;2023-07-28T14:59:14;32.40;86.70
25937;DHT22;13733;51.178;4.450;2023-07-28T15:01:41;32.90;74.80
25937;DHT22;13733;51.178;4.450;2023-07-28T15:04:08;32.50;76.30
25937;DHT22;13733;51.178;4.450;2023-07-28T15:06:33;31.70;79.60
25937;DHT22;13733;51.178;4.450;2023-07-28T15:08:59;32.10;77.90
25937;DHT22;13733;51.178;4.450;2023-07-28T15:11:25;33.20;75.50
25937;DHT22;13733;51.178;4.450;2023-07-28T15:13:54;34.50;66.30
25937;DHT22;13733;51.178;4.450;2023-07-28T15:16:19;35.00;62.00
25937;DHT22;13733;51.178;4.450;2023-07-28T15:18:48;36.30;56.90
25937;DHT22;13733;51.178;4.450;2023-07-28T15:21:14;36.10;55.40
25937;DHT22;13733;51.178;4.450;2023-07-28T15:23:40;35.70;54.00
25937;DHT22;13733;51.178;4.450;2023-07-28T15:26:06;36.00;54.20
25937;DHT22;13733;51.178;4.450;2023-07-28T15:28:31;36.10;51.30
25937;DHT22;13733;51.178;4.450;2023-07-28T15:30:57;35.70;51.00
25937;DHT22;13733;51.178;4.450;2023-07-28T15:33:23;35.50;51.60
25937;DHT22;13733;51.178;4.450;2023-07-28T15:35:50;35.60;52.50
25937;DHT22;13733;51.178;4.450;2023-07-28T15:38:16;37.00;50.50
25937;DHT22;13733;51.178;4.450;2023-07-28T15:40:42;37.40;46.60
25937;DHT22;13733;51.178;4.450;2023-07-28T15:43:08;36.60;47.70
25937;DHT22;13733;51.178;4.450;2023-07-28T15:45:33;36.10;48.60
25937;DHT22;13733;51.178;4.450;2023-07-28T15:48:00;35.90;48.20